createdAt,value
2022-10-11T00:01:14.693Z,5.15
2022-10-11T00:03:40.988Z,5.57
2022-10-11T00:06:08.880Z,6.32
2022-10-11T00:08:35.937Z,5.38
2022-10-11T00:11:04.142Z,5.15
2022-10-11T00:13:30.491Z,5.00
2022-10-11T00:15:57.204Z,5.35
2022-10-11T00:18:24.043Z,6.25
2022-10-11T00:20:50.369Z,5.03
2022-10-11T00:23:16.666Z,5.78
2022-10-11T00:25:42.879Z,5.65
2022-10-11T00:28:09.248Z,5.32
2022-10-11T00:30:35.483Z,5.80
2022-10-11T00:33:01.751Z,4.88
2022-10-11T00:35:27.981Z,5.97
2022-10-11T00:37:55.966Z,5.93
2022-10-11T00:40:22.308Z,5.35
2022-10-11T00:42:48.539Z,5.80
2022-10-11T00:45:26.697Z,5.53
2022-10-11T00:48:01.822Z,6.05
2022-10-11T00:50:30.765Z,6.40
2022-10-11T00:52:58.961Z,6.32
2022-10-11T00:55:26.593Z,6.20
2022-10-11T00:57:53.198Z,7.63
2022-10-11T01:00:19.978Z,6.85
2022-10-11T01:02:46.746Z,7.65
2022-10-11T01:05:30.283Z,6.90
2022-10-11T01:07:58.496Z,6.30
2022-10-11T01:10:25.261Z,7.28
2022-10-11T01:13:10.219Z,6.47
2022-10-11T01:15:43.262Z,6.60
2022-10-11T01:18:26.321Z,6.72
2022-10-11T01:20:52.706Z,7.55
2022-10-11T01:23:18.974Z,8.05
2022-10-11T01:26:03.163Z,7.00
2022-10-11T01:28:42.192Z,6.88
2022-10-11T01:31:13.656Z,7.00
2022-10-11T01:33:41.543Z,7.13
2022-10-11T01:36:28.005Z,7.68
2022-10-11T01:38:58.097Z,7.72
2022-10-11T01:41:26.899Z,7.50
2022-10-11T01:43:57.604Z,9.10
2022-10-11T01:46:24.202Z,8.02
2022-10-11T01:48:51.912Z,9.73
2022-10-11T01:51:21.841Z,9.18
2022-10-11T01:54:06.732Z,8.68
2022-10-11T01:56:45.030Z,10.32
2022-10-11T01:59:18.354Z,10.75
2022-10-11T02:01:50.982Z,10.95
2022-10-11T02:04:22.735Z,11.73
2022-10-11T02:06:54.781Z,10.95
2022-10-11T02:09:24.385Z,11.80
2022-10-11T02:11:52.351Z,13.20
2022-10-11T02:14:20.456Z,12.85
2022-10-11T02:16:49.315Z,13.18
2022-10-11T02:19:18.556Z,13.02
2022-10-11T02:21:47.164Z,14.98
2022-10-11T02:24:17.285Z,15.68
2022-10-11T02:26:47.149Z,15.25
2022-10-11T02:29:14.948Z,15.15
2022-10-11T02:31:41.807Z,14.95
2022-10-11T02:34:12.058Z,15.68
2022-10-11T02:36:38.278Z,15.63
2022-10-11T02:39:09.258Z,17.25
2022-10-11T02:41:37.285Z,16.83
2022-10-11T02:44:06.719Z,17.58
2022-10-11T02:46:33.805Z,17.70
2022-10-11T02:49:00.459Z,17.65
2022-10-11T02:51:29.655Z,18.30
2022-10-11T02:53:55.898Z,18.55
2022-10-11T02:56:22.122Z,19.05
2022-10-11T02:58:48.754Z,18.92
2022-10-11T03:01:15.304Z,18.02
2022-10-11T03:03:41.961Z,17.75
2022-10-11T03:06:08.853Z,20.08
2022-10-11T03:08:35.316Z,19.77
2022-10-11T03:11:01.601Z,19.63
2022-10-11T03:13:27.828Z,21.17
2022-10-11T03:16:07.288Z,19.63
2022-10-11T03:18:33.794Z,20.67
2022-10-11T03:21:00.083Z,20.85
2022-10-11T03:23:26.323Z,20.90
2022-10-11T03:25:52.550Z,19.95
2022-10-11T03:28:19.103Z,20.23
2022-10-11T03:30:47.026Z,21.65
2022-10-11T03:33:13.249Z,19.23
2022-10-11T03:35:40.582Z,19.52
2022-10-11T03:38:09.126Z,18.95
2022-10-11T03:40:38.568Z,19.15
2022-10-11T03:43:04.821Z,19.33
2022-10-11T03:45:31.056Z,17.85
2022-10-11T03:47:57.678Z,17.08
2022-10-11T03:50:24.726Z,16.70
2022-10-11T03:55:17.308Z,16.38
2022-10-11T03:57:43.534Z,16.02
2022-10-11T04:00:10.038Z,15.40
2022-10-11T04:02:39.179Z,15.15
2022-10-11T04:05:06.425Z,13.70
2022-10-11T04:09:59.033Z,11.50
2022-10-11T04:12:25.417Z,10.35
2022-10-11T04:14:51.623Z,9.93
2022-10-11T04:17:17.970Z,9.83
2022-10-11T04:19:44.181Z,9.15
2022-10-11T04:22:10.454Z,10.00
2022-10-11T04:24:36.692Z,9.82
2022-10-11T04:27:02.916Z,9.05
2022-10-11T04:29:32.571Z,9.30
2022-10-11T04:31:59.314Z,9.25
2022-10-11T04:34:25.621Z,8.90
2022-10-11T04:36:51.877Z,9.25
2022-10-11T04:39:18.173Z,8.48
2022-10-11T04:41:44.398Z,8.65
2022-10-11T04:44:10.658Z,8.80
2022-10-11T04:46:36.888Z,9.27
2022-10-11T04:49:03.533Z,9.05
2022-10-11T04:51:30.297Z,8.40
2022-10-11T04:53:56.752Z,8.82
2022-10-11T04:56:23.004Z,7.43
2022-10-11T04:58:49.529Z,7.18
2022-10-11T05:01:16.006Z,7.13
2022-10-11T05:03:43.260Z,7.07
2022-10-11T05:06:09.921Z,6.47
2022-10-11T05:08:36.607Z,5.22
2022-10-11T05:11:04.572Z,4.60
2022-10-11T05:13:30.881Z,4.10
2022-10-11T05:15:57.259Z,3.72
2022-10-11T05:18:23.882Z,2.55
2022-10-11T05:20:57.849Z,3.45
2022-10-11T05:23:24.103Z,3.42
2022-10-11T05:25:50.377Z,2.50
2022-10-11T05:28:16.647Z,3.30
2022-10-11T05:30:42.915Z,2.22
2022-10-11T05:33:09.124Z,3.03
2022-10-11T05:35:35.438Z,2.45
2022-10-11T05:38:01.653Z,2.88
2022-10-11T05:40:27.901Z,2.13
2022-10-11T05:42:54.147Z,2.35
2022-10-11T05:45:20.401Z,2.55
2022-10-11T05:47:46.626Z,3.42
2022-10-11T05:50:12.854Z,2.25
2022-10-11T05:52:39.108Z,2.95
2022-10-11T05:55:05.567Z,2.67
2022-10-11T05:57:31.940Z,2.13
2022-10-11T05:59:58.201Z,2.17
2022-10-11T06:02:24.433Z,3.33
2022-10-11T06:04:50.668Z,2.50
2022-10-11T06:07:16.880Z,3.80
2022-10-11T06:09:43.133Z,3.63
2022-10-11T06:12:09.350Z,2.75
2022-10-11T06:14:35.820Z,3.17
2022-10-11T06:17:02.029Z,1.90
2022-10-11T06:19:28.325Z,2.42
2022-10-11T06:21:54.578Z,3.53
2022-10-11T06:24:20.805Z,3.25
2022-10-11T06:26:48.659Z,2.28
2022-10-11T06:29:14.891Z,2.05
2022-10-11T06:31:41.123Z,2.30
2022-10-11T06:34:07.354Z,1.98
2022-10-11T06:36:33.599Z,2.85
2022-10-11T06:39:01.360Z,2.40
2022-10-11T06:41:28.903Z,2.50
2022-10-11T06:43:55.610Z,2.58
2022-10-11T06:46:22.799Z,2.63
2022-10-11T06:48:49.692Z,2.05
2022-10-11T06:51:17.601Z,2.30
2022-10-11T06:53:44.168Z,2.65
2022-10-11T06:56:11.812Z,3.13
2022-10-11T06:58:38.710Z,1.90
2022-10-11T07:01:09.480Z,2.42
2022-10-11T07:03:35.942Z,2.95
2022-10-11T07:06:02.830Z,2.42
2022-10-11T07:08:29.485Z,2.30
2022-10-11T07:11:06.426Z,2.03
2022-10-11T07:13:32.641Z,3.00
2022-10-11T07:16:06.604Z,2.42
2022-10-11T07:18:33.183Z,2.13
2022-10-11T07:21:02.498Z,2.25
2022-10-11T07:23:28.739Z,2.20
2022-10-11T07:25:55.208Z,4.22
2022-10-11T07:28:22.017Z,2.60
2022-10-11T07:30:48.542Z,3.78
2022-10-11T07:33:14.777Z,1.85
2022-10-11T07:35:44.712Z,2.83
2022-10-11T07:38:13.766Z,2.55
2022-10-11T07:40:46.409Z,2.60
2022-10-11T07:43:13.063Z,3.65
2022-10-11T07:45:40.068Z,3.00
2022-10-11T07:50:33.037Z,2.35
2022-10-11T07:52:59.558Z,2.38
2022-10-11T07:55:27.478Z,3.55
2022-10-11T07:57:57.071Z,2.45
2022-10-11T08:00:23.848Z,2.92
2022-10-11T08:02:50.200Z,2.97
2022-10-11T08:05:16.680Z,3.13
2022-10-11T08:07:42.897Z,3.22
2022-10-11T08:10:09.504Z,2.83
2022-10-11T08:12:35.742Z,2.90
2022-10-11T08:15:01.995Z,3.03
2022-10-11T08:17:29.569Z,3.42
2022-10-11T08:19:58.034Z,2.65
2022-10-11T08:22:24.291Z,3.10
2022-10-11T08:24:50.630Z,2.83
2022-10-11T08:27:16.878Z,3.40
2022-10-11T08:29:43.113Z,2.40
2022-10-11T08:32:11.865Z,2.92
2022-10-11T08:34:38.216Z,2.80
2022-10-11T08:37:04.450Z,3.40
2022-10-11T08:39:30.763Z,2.70
2022-10-11T08:42:15.822Z,3.05
2022-10-11T08:45:09.440Z,2.85
2022-10-11T08:47:36.442Z,3.53
2022-10-11T08:50:04.034Z,3.30
2022-10-11T08:52:44.902Z,3.30
2022-10-11T08:55:31.364Z,3.42
2022-10-11T08:57:58.423Z,3.10
2022-10-11T09:00:26.493Z,4.45
2022-10-11T09:03:09.899Z,4.15
2022-10-11T09:05:43.859Z,2.78
2022-10-11T09:08:13.497Z,2.33
2022-10-11T09:10:39.728Z,3.50
2022-10-11T09:13:31.076Z,3.58
2022-10-11T09:16:15.144Z,2.53
2022-10-11T09:18:47.830Z,3.70
2022-10-11T09:21:32.285Z,2.90
2022-10-11T09:24:13.143Z,2.70
2022-10-11T09:26:49.442Z,2.00
2022-10-11T09:29:34.185Z,3.15
2022-10-11T09:32:00.724Z,3.67
2022-10-11T09:34:32.175Z,4.00
2022-10-11T09:37:17.392Z,3.13
2022-10-11T09:40:00.115Z,2.92
2022-10-11T09:42:26.387Z,3.70
2022-10-11T09:44:52.716Z,4.20
2022-10-11T09:47:23.976Z,3.35
2022-10-11T09:49:56.548Z,2.90
2022-10-11T09:52:23.741Z,2.90
2022-10-11T09:54:51.261Z,3.13
2022-10-11T09:57:23.317Z,3.30
2022-10-11T09:59:58.613Z,2.75
2022-10-11T10:02:24.876Z,2.22
2022-10-11T10:04:59.079Z,2.30
2022-10-11T10:07:25.464Z,2.95
2022-10-11T10:09:52.671Z,2.67
2022-10-11T10:12:23.817Z,3.25
2022-10-11T10:15:07.166Z,2.42
2022-10-11T10:17:34.341Z,3.40
2022-10-11T10:20:00.679Z,2.90
2022-10-11T10:22:31.135Z,3.28
2022-10-11T10:24:58.773Z,3.63
2022-10-11T10:27:29.688Z,3.15
2022-10-11T10:30:01.732Z,3.20
2022-10-11T10:32:30.742Z,3.25
2022-10-11T10:35:02.005Z,2.83
2022-10-11T10:37:57.690Z,3.63
2022-10-11T10:40:50.203Z,2.80
2022-10-11T10:43:18.006Z,3.70
2022-10-11T10:45:53.253Z,3.03
2022-10-11T10:49:12.005Z,3.28
2022-10-11T10:51:43.723Z,3.47
2022-10-11T10:54:09.948Z,2.92
2022-10-11T10:56:48.047Z,3.70
2022-10-11T10:59:23.575Z,3.85
2022-10-11T11:02:06.741Z,3.03
2022-10-11T11:04:45.967Z,2.80
2022-10-11T11:07:15.067Z,3.13
2022-10-11T11:10:01.579Z,3.58
2022-10-11T11:12:35.964Z,3.42
2022-10-11T11:15:08.378Z,3.53
2022-10-11T11:17:37.610Z,2.80
2022-10-11T11:20:03.816Z,3.13
2022-10-11T11:22:38.661Z,2.70
2022-10-11T11:25:15.214Z,3.15
2022-10-11T11:28:00.031Z,3.92
2022-10-11T11:30:45.159Z,4.30
2022-10-11T11:33:29.983Z,2.92
2022-10-11T11:35:58.114Z,2.90
2022-10-11T11:38:43.220Z,2.38
2022-10-11T11:41:20.807Z,2.53
2022-10-11T11:43:54.757Z,3.55
2022-10-11T11:46:24.261Z,2.78
2022-10-11T11:48:52.185Z,2.55
2022-10-11T11:51:21.077Z,2.70
2022-10-11T11:53:47.321Z,3.08
2022-10-11T11:56:26.675Z,3.00
2022-10-11T11:59:03.074Z,2.65
2022-10-11T12:01:47.709Z,2.47
2022-10-11T12:04:34.255Z,2.50
2022-10-11T12:07:15.469Z,3.47
2022-10-11T12:09:44.315Z,2.33
2022-10-11T12:12:25.666Z,2.60
2022-10-11T12:15:01.689Z,2.58
2022-10-11T12:17:28.180Z,2.60
2022-10-11T12:20:24.005Z,2.67
2022-10-11T12:22:50.209Z,2.20
2022-10-11T12:25:22.168Z,3.30
2022-10-11T12:27:50.449Z,2.30
2022-10-11T12:30:35.520Z,2.10
2022-10-11T12:33:34.286Z,2.50
2022-10-11T12:36:05.574Z,2.30
2022-10-11T12:38:37.202Z,2.17
2022-10-11T12:41:09.541Z,2.10
2022-10-11T12:43:55.737Z,2.30
2022-10-11T12:46:27.893Z,2.47
2022-10-11T12:48:59.661Z,2.25
2022-10-11T12:51:38.241Z,2.40
2022-10-11T12:54:29.965Z,2.53
2022-10-11T12:57:12.158Z,1.85
2022-10-11T12:59:41.458Z,1.90
2022-10-11T13:02:24.151Z,1.60
2022-10-11T13:04:50.489Z,1.85
2022-10-11T13:07:23.390Z,2.20
2022-10-11T13:09:52.774Z,2.22
2022-10-11T13:12:23.299Z,2.10
2022-10-11T13:15:08.384Z,2.00
2022-10-11T13:17:38.419Z,2.17
2022-10-11T13:20:17.485Z,2.05
2022-10-11T13:22:45.940Z,1.85
2022-10-11T13:25:15.313Z,2.88
2022-10-11T13:27:41.681Z,1.73
2022-10-11T13:30:11.077Z,1.80
2022-10-11T13:32:37.511Z,2.03
2022-10-11T13:35:12.875Z,2.10
2022-10-11T13:37:46.048Z,2.30
2022-10-11T13:40:17.370Z,1.98
2022-10-11T13:42:44.070Z,2.83
2022-10-11T13:45:12.710Z,3.25
2022-10-11T13:47:39.188Z,2.55
2022-10-11T13:50:09.061Z,1.67
2022-10-11T13:52:35.317Z,1.90
2022-10-11T13:55:04.777Z,2.83
2022-10-11T13:57:48.050Z,2.30
2022-10-11T14:00:20.096Z,2.55
2022-10-11T14:02:48.368Z,1.92
2022-10-11T14:05:22.290Z,2.33
2022-10-11T14:07:48.512Z,2.15
2022-10-11T14:10:22.168Z,2.28
2022-10-11T14:12:59.063Z,2.08
2022-10-11T14:15:27.182Z,1.98
2022-10-11T14:17:53.421Z,2.78
2022-10-11T14:20:19.642Z,2.03
2022-10-11T14:22:45.902Z,2.13
2022-10-11T14:25:12.464Z,2.08
2022-10-11T14:27:39.285Z,2.03
2022-10-11T14:30:24.402Z,1.98
2022-10-11T14:32:52.258Z,1.90
2022-10-11T14:35:20.667Z,1.70
2022-10-11T14:37:47.008Z,2.00
2022-10-11T14:40:17.653Z,1.73
2022-10-11T14:42:44.156Z,2.15
2022-10-11T14:45:10.987Z,2.47
2022-10-11T14:47:42.640Z,2.03
2022-10-11T14:50:30.245Z,1.67
2022-10-11T14:52:56.722Z,2.25
2022-10-11T14:55:23.620Z,2.25
2022-10-11T14:57:50.240Z,2.03
2022-10-11T15:02:42.722Z,1.85
2022-10-11T15:05:08.986Z,2.22
2022-10-11T15:07:35.241Z,1.95
2022-10-11T15:10:01.505Z,1.90
2022-10-11T15:12:27.830Z,1.65
2022-10-11T15:14:54.057Z,2.10
2022-10-11T15:17:20.288Z,2.00
2022-10-11T15:19:46.509Z,2.63
2022-10-11T15:22:12.742Z,2.35
2022-10-11T15:24:38.969Z,2.47
2022-10-11T15:27:05.232Z,1.80
2022-10-11T15:29:31.445Z,2.10
2022-10-11T15:31:57.673Z,3.40
2022-10-11T15:34:23.898Z,2.70
2022-10-11T15:36:50.249Z,3.20
2022-10-11T15:39:32.459Z,2.65
2022-10-11T15:41:58.784Z,2.20
2022-10-11T15:44:25.390Z,2.47
2022-10-11T15:46:51.768Z,3.15
2022-10-11T15:49:18.194Z,2.03
2022-10-11T15:51:44.448Z,3.97
2022-10-11T15:54:10.664Z,3.53
2022-10-11T15:56:37.023Z,2.88
2022-10-11T15:59:03.317Z,2.17
2022-10-11T16:01:29.577Z,1.95
2022-10-11T16:03:55.828Z,2.30
2022-10-11T16:06:23.108Z,3.28
2022-10-11T16:08:49.472Z,3.17
2022-10-11T16:11:15.825Z,3.53
2022-10-11T16:13:42.205Z,3.83
2022-10-11T16:16:09.716Z,4.20
2022-10-11T16:18:36.427Z,5.22
2022-10-11T16:21:05.786Z,3.08
2022-10-11T16:23:32.230Z,2.72
2022-10-11T16:25:59.778Z,3.55
2022-10-11T16:28:26.414Z,2.83
2022-10-11T16:30:52.744Z,3.33
2022-10-11T16:33:19.067Z,3.42
2022-10-11T16:35:45.300Z,6.85
2022-10-11T16:38:11.551Z,3.85
2022-10-11T16:40:38.858Z,9.70
2022-10-11T16:43:07.865Z,5.53
2022-10-11T16:45:34.736Z,11.68
2022-10-11T16:48:01.034Z,9.88
2022-10-11T16:50:27.272Z,6.32
2022-10-11T16:52:55.381Z,6.63
2022-10-11T16:55:21.882Z,6.47
2022-10-11T16:57:48.116Z,3.50
2022-10-11T17:00:14.690Z,3.30
2022-10-11T17:02:41.123Z,3.35
2022-10-11T17:05:07.668Z,3.20
2022-10-11T17:07:33.906Z,3.38
2022-10-11T17:10:01.063Z,5.10
2022-10-11T17:12:27.798Z,6.10
2022-10-11T17:14:54.123Z,5.45
2022-10-11T17:17:23.694Z,4.15
2022-10-11T17:19:50.033Z,2.88
2022-10-11T17:22:17.502Z,3.50
2022-10-11T17:24:43.875Z,3.22
2022-10-11T17:27:10.142Z,3.95
2022-10-11T17:29:36.889Z,9.82
2022-10-11T17:32:03.572Z,9.60
2022-10-11T17:34:29.837Z,4.25
2022-10-11T17:36:56.114Z,5.18
2022-10-11T17:39:24.068Z,5.00
2022-10-11T17:41:50.579Z,8.57
2022-10-11T17:44:17.975Z,4.05
2022-10-11T17:46:44.326Z,6.65
2022-10-11T17:49:11.496Z,5.50
2022-10-11T17:51:39.029Z,5.22
2022-10-11T17:54:06.178Z,6.43
2022-10-11T17:56:37.445Z,6.22
2022-10-11T17:59:04.301Z,14.02
2022-10-11T18:01:30.590Z,24.95
2022-10-11T18:03:58.710Z,19.58
2022-10-11T18:06:26.589Z,16.60
2022-10-11T18:08:52.796Z,21.20
2022-10-11T18:11:19.818Z,12.00
2022-10-11T18:16:13.778Z,9.95
2022-10-11T18:18:40.381Z,6.00
2022-10-11T18:21:06.594Z,5.13
2022-10-11T18:23:32.849Z,44.20
2022-10-11T18:25:59.091Z,5.38
2022-10-11T18:28:25.613Z,8.55
2022-10-11T18:30:53.088Z,4.30
2022-10-11T18:33:19.352Z,4.07
2022-10-11T18:35:45.594Z,2.83
2022-10-11T18:38:12.040Z,2.63
2022-10-11T18:40:42.240Z,5.22
2022-10-11T18:43:11.059Z,8.27
2022-10-11T18:45:37.276Z,47.50
2022-10-11T18:48:03.544Z,6.97
2022-10-11T18:50:34.742Z,9.73
2022-10-11T18:53:01.390Z,6.72
2022-10-11T18:55:27.672Z,5.70
2022-10-11T18:57:53.892Z,7.93
2022-10-11T19:00:39.588Z,5.88
2022-10-11T19:03:06.258Z,6.90
2022-10-11T19:05:32.483Z,5.32
2022-10-11T19:07:58.726Z,5.63
2022-10-11T19:10:24.932Z,5.20
2022-10-11T19:12:51.159Z,4.38
2022-10-11T19:15:17.404Z,4.82
2022-10-11T19:17:43.669Z,5.68
2022-10-11T19:20:10.324Z,5.10
2022-10-11T19:22:36.563Z,4.05
2022-10-11T19:25:02.803Z,5.07
2022-10-11T19:27:29.052Z,3.58
2022-10-11T19:29:55.285Z,3.38
2022-10-11T19:32:21.755Z,3.20
2022-10-11T19:34:47.993Z,3.63
2022-10-11T19:37:14.346Z,4.25
2022-10-11T19:39:40.613Z,4.43
2022-10-11T19:42:06.997Z,4.45
2022-10-11T19:44:37.212Z,5.90
2022-10-11T19:47:06.032Z,5.25
2022-10-11T19:49:32.290Z,5.00
2022-10-11T19:51:58.842Z,3.97
2022-10-11T19:54:25.074Z,3.22
2022-10-11T19:56:51.383Z,4.20
2022-10-11T19:59:17.820Z,3.60
2022-10-11T20:01:49.339Z,3.53
2022-10-11T20:04:39.576Z,4.78
2022-10-11T20:07:04.712Z,3.88
2022-10-11T20:09:31.225Z,3.30
2022-10-11T20:11:57.652Z,4.40
2022-10-11T20:14:23.913Z,3.92
2022-10-11T20:16:50.526Z,4.15
2022-10-11T20:19:17.263Z,4.10
2022-10-11T20:21:43.891Z,3.33
2022-10-11T20:24:10.219Z,3.80
2022-10-11T20:26:36.481Z,6.65
2022-10-11T20:29:02.704Z,5.05
2022-10-11T20:31:30.978Z,3.35
2022-10-11T20:34:02.147Z,2.95
2022-10-11T20:36:29.959Z,3.38
2022-10-11T20:38:56.752Z,3.35
2022-10-11T20:41:24.142Z,3.20
2022-10-11T20:43:52.569Z,3.30
2022-10-11T20:46:20.002Z,3.90
2022-10-11T20:48:50.480Z,3.38
2022-10-11T20:51:17.143Z,3.03
2022-10-11T20:53:43.957Z,3.08
2022-10-11T20:56:11.225Z,3.42
2022-10-11T20:58:37.700Z,3.53
2022-10-11T21:01:11.370Z,3.40
2022-10-11T21:03:37.659Z,3.28
2022-10-11T21:06:03.965Z,2.88
2022-10-11T21:08:30.352Z,2.60
2022-10-11T21:10:56.827Z,2.92
2022-10-11T21:13:23.120Z,3.22
2022-10-11T21:15:49.450Z,3.83
2022-10-11T21:18:15.837Z,3.20
2022-10-11T21:20:42.708Z,2.70
2022-10-11T21:23:09.563Z,3.03
2022-10-11T21:25:36.462Z,3.30
2022-10-11T21:28:03.717Z,3.15
2022-10-11T21:30:29.970Z,2.65
2022-10-11T21:32:57.382Z,3.35
2022-10-11T21:35:24.509Z,3.22
2022-10-11T21:37:50.997Z,3.40
2022-10-11T21:40:17.333Z,2.58
2022-10-11T21:42:43.552Z,3.50
2022-10-11T21:45:10.017Z,3.35
2022-10-11T21:47:39.024Z,3.72
2022-10-11T21:50:05.845Z,3.80
2022-10-11T21:52:32.236Z,4.70
2022-10-11T21:54:58.548Z,3.72
2022-10-11T21:57:24.757Z,3.17
2022-10-11T21:59:51.166Z,4.38
2022-10-11T22:02:17.454Z,3.72
2022-10-11T22:04:43.726Z,3.05
2022-10-11T22:07:09.982Z,3.45
2022-10-11T22:09:36.422Z,3.22
2022-10-11T22:12:02.942Z,2.97
2022-10-11T22:14:29.819Z,3.00
2022-10-11T22:16:56.556Z,3.38
2022-10-11T22:19:23.251Z,3.08
2022-10-11T22:21:49.581Z,3.95
2022-10-11T22:24:16.611Z,3.70
2022-10-11T22:29:09.002Z,4.07
2022-10-11T22:31:35.274Z,4.20
2022-10-11T22:34:01.697Z,5.03
2022-10-11T22:36:28.762Z,3.00
2022-10-11T22:41:21.214Z,3.15
2022-10-11T22:43:47.516Z,3.60
2022-10-11T22:46:13.769Z,3.40
2022-10-11T22:48:40.016Z,3.20
2022-10-11T22:51:06.316Z,3.10
2022-10-11T22:53:32.573Z,2.88
2022-10-11T22:55:58.880Z,2.45
2022-10-11T22:58:25.182Z,3.58
2022-10-11T23:00:51.404Z,3.05
2022-10-11T23:03:18.197Z,3.10
2022-10-11T23:05:53.463Z,2.83
2022-10-11T23:08:19.677Z,3.28
2022-10-11T23:10:45.904Z,3.05
2022-10-11T23:13:12.276Z,3.08
2022-10-11T23:15:41.594Z,2.83
2022-10-11T23:18:07.884Z,3.47
2022-10-11T23:20:34.097Z,2.70
2022-10-11T23:23:00.372Z,3.03
2022-10-11T23:25:26.621Z,3.50
2022-10-11T23:27:52.841Z,3.22
2022-10-11T23:30:19.249Z,4.65
2022-10-11T23:32:45.476Z,3.97
2022-10-11T23:35:11.711Z,3.47
2022-10-11T23:37:38.292Z,3.90
2022-10-11T23:40:05.053Z,2.80
2022-10-11T23:42:31.264Z,4.03
2022-10-11T23:44:57.494Z,4.00
2022-10-11T23:47:23.888Z,3.35
2022-10-11T23:49:50.116Z,3.25
2022-10-11T23:52:16.338Z,2.83
2022-10-11T23:54:42.601Z,3.10
2022-10-11T23:57:08.874Z,3.40
2022-10-11T23:59:35.100Z,2.95
